createdAt,value
2019-05-17T00:02:17.609Z,23.52
2019-05-17T00:04:47.273Z,17.90
2019-05-17T00:07:16.949Z,21.12
2019-05-17T00:09:47.880Z,23.20
2019-05-17T00:12:17.616Z,23.47
2019-05-17T00:14:47.413Z,23.85
2019-05-17T00:17:17.505Z,23.98
2019-05-17T00:19:47.222Z,24.40
2019-05-17T00:22:16.938Z,24.80
2019-05-17T00:24:47.720Z,25.35
2019-05-17T00:27:17.475Z,25.00
2019-05-17T00:29:47.115Z,24.77
2019-05-17T00:32:17.256Z,23.77
2019-05-17T00:34:47.158Z,25.75
2019-05-17T00:37:17.428Z,23.80
2019-05-17T00:39:47.326Z,24.23
2019-05-17T00:42:17.266Z,22.52
2019-05-17T00:44:47.499Z,25.10
2019-05-17T00:47:17.322Z,25.43
2019-05-17T00:49:46.900Z,26.27
2019-05-17T00:52:16.834Z,24.45
2019-05-17T00:54:46.918Z,24.43
2019-05-17T00:57:16.787Z,25.45
2019-05-17T00:59:47.594Z,22.93
2019-05-17T01:02:17.390Z,21.50
2019-05-17T01:04:47.592Z,20.97
2019-05-17T01:07:17.846Z,16.77
2019-05-17T01:09:47.506Z,16.17
2019-05-17T01:12:17.169Z,13.78
2019-05-17T01:14:46.817Z,16.07
2019-05-17T01:17:16.713Z,17.57
2019-05-17T01:19:47.243Z,17.48
2019-05-17T01:22:17.087Z,18.27
2019-05-17T01:24:46.970Z,19.48
2019-05-17T01:27:17.193Z,19.12
2019-05-17T01:29:46.952Z,19.98
2019-05-17T01:32:17.929Z,15.75
2019-05-17T01:34:47.670Z,17.27
2019-05-17T01:37:17.392Z,17.17
2019-05-17T01:39:48.484Z,17.05
2019-05-17T01:42:18.148Z,18.15
2019-05-17T01:44:47.787Z,17.27
2019-05-17T01:47:17.458Z,21.15
2019-05-17T01:49:47.133Z,22.00
2019-05-17T01:52:16.948Z,18.82
2019-05-17T01:54:47.056Z,15.95
2019-05-17T01:57:17.027Z,14.98
2019-05-17T01:59:46.859Z,15.88
2019-05-17T02:02:18.125Z,18.07
2019-05-17T02:04:47.765Z,17.15
2019-05-17T02:07:17.429Z,17.15
2019-05-17T02:09:47.652Z,14.85
2019-05-17T02:12:17.510Z,14.13
2019-05-17T02:14:47.411Z,15.43
2019-05-17T02:17:17.515Z,14.15
2019-05-17T02:19:47.212Z,15.58
2019-05-17T02:22:16.939Z,16.42
2019-05-17T02:24:46.607Z,14.80
2019-05-17T02:27:16.489Z,14.98
2019-05-17T02:29:46.152Z,15.40
2019-05-17T02:32:15.969Z,16.15
2019-05-17T02:34:45.634Z,15.83
2019-05-17T02:37:15.273Z,15.60
2019-05-17T02:40:01.573Z,15.53
2019-05-17T02:42:17.347Z,15.80
2019-05-17T02:44:47.015Z,14.63
2019-05-17T02:47:16.651Z,15.65
2019-05-17T02:49:46.309Z,15.60
2019-05-17T02:52:15.938Z,16.35
2019-05-17T02:54:45.603Z,15.80
2019-05-17T02:57:15.258Z,15.80
2019-05-17T02:59:44.907Z,16.10
2019-05-17T03:02:14.539Z,16.35
2019-05-17T03:04:44.309Z,16.35
2019-05-17T03:07:13.967Z,17.00
2019-05-17T03:09:43.604Z,17.80
2019-05-17T03:12:13.265Z,16.37
2019-05-17T03:14:43.439Z,15.83
2019-05-17T03:17:14.128Z,16.67
2019-05-17T03:19:43.971Z,16.15
2019-05-17T03:22:13.593Z,15.70
2019-05-17T03:24:43.885Z,17.05
2019-05-17T03:27:13.948Z,16.57
2019-05-17T03:29:43.610Z,16.30
2019-05-17T03:32:16.939Z,16.42
2019-05-17T03:34:47.602Z,16.77
2019-05-17T03:37:17.287Z,16.23
2019-05-17T03:39:46.983Z,17.77
2019-05-17T03:42:16.635Z,17.77
2019-05-17T03:44:46.286Z,17.85
2019-05-17T03:47:15.981Z,17.85
2019-05-17T03:49:45.648Z,17.00
2019-05-17T03:52:15.283Z,17.10
2019-05-17T03:54:44.938Z,18.80
2019-05-17T03:57:14.645Z,18.82
2019-05-17T03:59:44.317Z,16.40
2019-05-17T04:02:13.965Z,17.10
2019-05-17T04:04:43.631Z,17.65
2019-05-17T04:07:13.276Z,16.77
2019-05-17T04:09:43.688Z,16.15
2019-05-17T04:12:13.829Z,16.55
2019-05-17T04:14:43.611Z,17.57
2019-05-17T04:17:13.453Z,16.10
2019-05-17T04:19:43.127Z,17.27
2019-05-17T04:22:13.896Z,16.07
2019-05-17T04:24:44.104Z,17.40
2019-05-17T04:27:13.875Z,16.60
2019-05-17T04:29:43.557Z,17.65
2019-05-17T04:32:13.265Z,17.48
2019-05-17T04:34:43.736Z,18.10
2019-05-17T04:37:13.545Z,19.15
2019-05-17T04:39:43.466Z,19.65
2019-05-17T04:42:13.748Z,22.00
2019-05-17T04:44:43.527Z,19.67
2019-05-17T04:47:13.535Z,18.85
2019-05-17T04:49:44.153Z,19.12
2019-05-17T04:52:14.135Z,18.15
2019-05-17T04:54:55.897Z,19.25
2019-05-17T04:57:27.032Z,19.17
2019-05-17T04:59:56.737Z,18.52
2019-05-17T05:02:26.801Z,18.87
2019-05-17T05:05:07.570Z,17.80
2019-05-17T05:07:37.786Z,20.68
2019-05-17T05:10:07.611Z,20.35
2019-05-17T05:12:37.307Z,17.55
2019-05-17T05:15:07.993Z,19.17
2019-05-17T05:17:37.682Z,19.42
2019-05-17T05:20:08.070Z,19.30
2019-05-17T05:22:37.786Z,18.95
2019-05-17T05:25:08.071Z,17.37
2019-05-17T05:27:37.750Z,18.10
2019-05-17T05:30:07.727Z,18.73
2019-05-17T05:32:37.404Z,18.67
2019-05-17T05:35:08.183Z,17.57
2019-05-17T05:37:37.861Z,18.77
2019-05-17T05:40:08.248Z,18.82
2019-05-17T05:42:37.922Z,17.30
2019-05-17T05:45:07.802Z,16.55
2019-05-17T05:47:37.467Z,16.25
2019-05-17T05:50:07.542Z,15.60
2019-05-17T05:52:37.212Z,13.88
2019-05-17T05:55:08.681Z,12.47
2019-05-17T05:57:38.333Z,12.07
2019-05-17T06:00:13.251Z,12.07
2019-05-17T06:02:42.961Z,10.23
2019-05-17T06:05:16.946Z,10.80
2019-05-17T06:07:44.376Z,10.93
2019-05-17T06:10:14.452Z,10.85
2019-05-17T06:12:44.533Z,10.30
2019-05-17T06:15:14.509Z,10.08
2019-05-17T06:17:44.173Z,9.48
2019-05-17T06:20:14.076Z,9.30
2019-05-17T06:22:43.756Z,9.65
2019-05-17T06:25:15.594Z,9.18
2019-05-17T06:27:44.966Z,10.23
2019-05-17T06:30:15.040Z,12.50
2019-05-17T06:32:45.872Z,11.63
2019-05-17T06:35:15.645Z,12.58
2019-05-17T06:37:45.416Z,12.28
2019-05-17T06:40:15.285Z,12.55
2019-05-17T06:42:45.764Z,13.25
2019-05-17T06:45:18.403Z,11.85
2019-05-17T06:47:51.746Z,12.82
2019-05-17T06:50:23.478Z,13.50
2019-05-17T06:52:53.860Z,13.65
2019-05-17T06:55:24.326Z,13.35
2019-05-17T06:57:54.614Z,12.20
2019-05-17T07:00:24.562Z,13.45
2019-05-17T07:02:54.672Z,11.73
2019-05-17T07:05:29.357Z,11.83
2019-05-17T07:08:00.254Z,12.50
2019-05-17T07:10:30.249Z,12.43
2019-05-17T07:13:01.888Z,13.35
2019-05-17T07:15:43.647Z,12.43
2019-05-17T07:18:02.993Z,12.55
2019-05-17T07:20:32.627Z,12.10
2019-05-17T07:23:02.492Z,12.82
2019-05-17T07:25:32.236Z,12.05
2019-05-17T07:28:01.917Z,12.73
2019-05-17T07:30:31.542Z,12.05
2019-05-17T07:33:01.314Z,11.22
2019-05-17T07:35:30.934Z,11.73
2019-05-17T07:38:00.623Z,12.10
2019-05-17T07:40:30.572Z,12.55
2019-05-17T07:43:10.681Z,13.22
2019-05-17T07:45:31.741Z,14.33
2019-05-17T07:48:01.424Z,12.65
2019-05-17T07:50:31.061Z,12.70
2019-05-17T07:53:05.250Z,12.60
2019-05-17T07:55:34.887Z,12.88
2019-05-17T07:58:04.552Z,13.25
2019-05-17T08:00:34.231Z,12.53
2019-05-17T08:03:03.903Z,13.60
2019-05-17T08:05:33.840Z,13.43
2019-05-17T08:08:03.555Z,12.05
2019-05-17T08:10:33.226Z,13.90
2019-05-17T08:13:02.895Z,14.40
2019-05-17T08:15:32.545Z,13.68
2019-05-17T08:18:02.182Z,13.15
2019-05-17T08:20:33.863Z,12.98
2019-05-17T08:23:05.160Z,13.28
2019-05-17T08:25:48.754Z,12.82
2019-05-17T08:28:06.476Z,13.00
2019-05-17T08:30:36.355Z,13.45
2019-05-17T08:33:05.993Z,13.30
2019-05-17T08:35:35.669Z,12.47
2019-05-17T08:38:05.426Z,13.32
2019-05-17T08:40:35.091Z,11.73
2019-05-17T08:43:04.725Z,12.60
2019-05-17T08:45:34.405Z,12.90
2019-05-17T08:48:04.062Z,14.00
2019-05-17T08:50:33.728Z,12.13
2019-05-17T08:53:03.362Z,12.37
2019-05-17T08:55:33.038Z,13.50
2019-05-17T08:58:02.699Z,12.23
2019-05-17T09:00:32.412Z,12.20
2019-05-17T09:03:02.050Z,12.23
2019-05-17T09:05:31.750Z,12.60
2019-05-17T09:08:01.387Z,12.47
2019-05-17T09:10:31.164Z,12.03
2019-05-17T09:13:01.007Z,12.25
2019-05-17T09:15:30.769Z,11.53
2019-05-17T09:18:00.415Z,12.05
2019-05-17T09:20:30.086Z,12.20
2019-05-17T09:23:00.150Z,11.38
2019-05-17T09:25:30.361Z,12.70
2019-05-17T09:28:00.714Z,12.78
2019-05-17T09:30:31.396Z,12.20
2019-05-17T09:33:01.168Z,12.33
2019-05-17T09:35:30.950Z,12.58
2019-05-17T09:38:00.707Z,12.33
2019-05-17T09:40:30.380Z,12.78
2019-05-17T09:43:00.579Z,13.38
2019-05-17T09:45:31.169Z,13.00
2019-05-17T09:48:00.881Z,11.75
2019-05-17T09:50:30.888Z,13.20
2019-05-17T09:53:00.536Z,12.40
2019-05-17T09:55:30.314Z,12.63
2019-05-17T09:58:00.357Z,13.40
2019-05-17T10:00:31.217Z,12.95
2019-05-17T10:03:00.863Z,13.15
2019-05-17T10:05:31.288Z,14.30
2019-05-17T10:08:00.952Z,13.32
2019-05-17T10:10:30.966Z,13.25
2019-05-17T10:13:00.604Z,14.47
2019-05-17T10:15:30.853Z,13.85
2019-05-17T10:18:00.730Z,13.78
2019-05-17T10:20:30.436Z,14.20
2019-05-17T10:23:00.075Z,13.38
2019-05-17T10:25:29.766Z,13.05
2019-05-17T10:28:00.569Z,13.22
2019-05-17T10:30:31.020Z,14.50
2019-05-17T10:33:00.748Z,12.80
2019-05-17T10:35:30.419Z,15.03
2019-05-17T10:38:00.203Z,13.83
2019-05-17T10:40:30.042Z,13.90
2019-05-17T10:43:00.771Z,14.25
2019-05-17T10:45:30.686Z,13.83
2019-05-17T10:48:00.870Z,14.10
2019-05-17T10:50:30.492Z,13.50
2019-05-17T10:53:00.568Z,13.98
2019-05-17T10:55:30.515Z,13.72
2019-05-17T10:58:00.558Z,13.72
2019-05-17T11:00:30.515Z,14.47
2019-05-17T11:03:00.602Z,14.05
2019-05-17T11:05:30.926Z,13.68
2019-05-17T11:08:00.685Z,14.53
2019-05-17T11:10:30.345Z,14.13
2019-05-17T11:12:59.987Z,13.32
2019-05-17T11:15:29.636Z,13.32
2019-05-17T11:17:59.322Z,14.65
2019-05-17T11:20:30.666Z,14.65
2019-05-17T11:23:00.344Z,14.35
2019-05-17T11:25:29.985Z,13.80
2019-05-17T11:27:59.967Z,14.23
2019-05-17T11:30:29.607Z,14.20
2019-05-17T11:32:59.294Z,13.83
2019-05-17T11:35:28.901Z,14.25
2019-05-17T11:37:58.672Z,15.60
2019-05-17T11:40:28.636Z,15.30
2019-05-17T11:42:58.389Z,14.85
2019-05-17T11:45:32.480Z,15.43
2019-05-17T11:48:00.077Z,15.32
2019-05-17T11:50:29.734Z,13.88
2019-05-17T11:52:59.869Z,15.15
2019-05-17T11:55:29.565Z,13.38
2019-05-17T11:57:59.330Z,14.30
2019-05-17T12:00:29.213Z,13.03
2019-05-17T12:02:59.171Z,13.58
2019-05-17T12:05:28.907Z,13.55
2019-05-17T12:07:58.570Z,12.18
2019-05-17T12:10:28.607Z,12.47
2019-05-17T12:12:58.851Z,11.95
2019-05-17T12:15:43.640Z,11.75
2019-05-17T12:18:00.125Z,11.70
2019-05-17T12:20:29.757Z,12.98
2019-05-17T12:22:59.453Z,13.15
2019-05-17T12:25:30.267Z,12.13
2019-05-17T12:28:01.221Z,11.40
2019-05-17T12:30:30.873Z,11.35
2019-05-17T12:33:00.542Z,13.22
2019-05-17T12:35:30.188Z,12.50
2019-05-17T12:38:01.485Z,12.28
2019-05-17T12:40:31.137Z,13.45
2019-05-17T12:43:00.908Z,15.10
2019-05-17T12:45:30.657Z,14.03
2019-05-17T12:48:00.460Z,14.35
2019-05-17T12:50:30.141Z,13.75
2019-05-17T12:53:00.021Z,12.98
2019-05-17T12:55:29.762Z,14.50
2019-05-17T12:57:59.444Z,12.85
2019-05-17T13:00:29.514Z,18.37
2019-05-17T13:03:01.120Z,15.60
2019-05-17T13:05:30.960Z,15.53
2019-05-17T13:08:00.842Z,13.28
2019-05-17T13:10:30.484Z,12.15
2019-05-17T13:13:00.355Z,12.80
2019-05-17T13:15:30.093Z,12.65
2019-05-17T13:18:00.010Z,15.70
2019-05-17T13:20:29.653Z,17.60
2019-05-17T13:22:59.320Z,11.97
2019-05-17T13:25:29.512Z,12.63
2019-05-17T13:27:59.193Z,11.63
2019-05-17T13:30:28.834Z,12.00
2019-05-17T13:32:58.511Z,12.43
2019-05-17T13:35:28.150Z,12.18
2019-05-17T13:37:58.127Z,11.55
2019-05-17T13:40:27.932Z,11.12
2019-05-17T13:42:58.129Z,11.53
2019-05-17T13:45:28.089Z,12.25
2019-05-17T13:47:59.336Z,12.95
2019-05-17T13:50:30.449Z,13.18
2019-05-17T13:53:00.173Z,12.53
2019-05-17T13:55:30.152Z,13.35
2019-05-17T13:58:00.208Z,11.78
2019-05-17T14:00:30.149Z,11.48
2019-05-17T14:02:59.786Z,13.58
2019-05-17T14:05:29.574Z,12.13
2019-05-17T14:07:59.221Z,11.70
2019-05-17T14:10:32.110Z,12.82
2019-05-17T14:13:00.342Z,11.12
2019-05-17T14:15:30.436Z,10.38
2019-05-17T14:18:00.076Z,10.78
2019-05-17T14:20:29.841Z,11.25
2019-05-17T14:22:59.675Z,10.40
2019-05-17T14:25:30.870Z,10.85
2019-05-17T14:28:00.650Z,10.23
2019-05-17T14:30:30.577Z,9.80
2019-05-17T14:33:00.312Z,11.28
2019-05-17T14:35:32.695Z,9.83
2019-05-17T14:38:03.393Z,10.40
2019-05-17T14:41:04.995Z,9.98
2019-05-17T14:43:07.567Z,9.95
2019-05-17T14:45:39.053Z,10.50
2019-05-17T14:48:10.642Z,9.58
2019-05-17T14:50:40.346Z,9.03
2019-05-17T14:53:13.662Z,9.08
2019-05-17T14:55:44.862Z,10.78
2019-05-17T14:58:14.500Z,8.83
2019-05-17T15:00:44.170Z,9.30
2019-05-17T15:03:13.804Z,9.48
2019-05-17T15:05:43.474Z,10.85
2019-05-17T15:08:13.124Z,10.10
2019-05-17T15:10:42.950Z,10.23
2019-05-17T15:13:12.603Z,10.10
2019-05-17T15:15:42.271Z,10.98
2019-05-17T15:18:11.940Z,9.83
2019-05-17T15:20:41.576Z,10.10
2019-05-17T15:23:11.305Z,9.85
2019-05-17T15:25:40.983Z,11.03
2019-05-17T15:28:10.621Z,11.18
2019-05-17T15:30:40.286Z,9.93
2019-05-17T15:33:09.923Z,9.93
2019-05-17T15:35:39.793Z,10.35
2019-05-17T15:38:11.249Z,9.40
2019-05-17T15:40:40.954Z,11.93
2019-05-17T15:43:10.599Z,12.43
2019-05-17T15:45:40.278Z,11.05
2019-05-17T15:48:10.157Z,10.10
2019-05-17T15:50:39.869Z,9.18
2019-05-17T15:53:09.495Z,9.35
2019-05-17T15:55:39.155Z,8.75
2019-05-17T15:58:08.786Z,9.53
2019-05-17T16:00:38.479Z,9.15
2019-05-17T16:03:08.101Z,8.70
2019-05-17T16:05:37.762Z,9.28
2019-05-17T16:08:07.488Z,8.90
2019-05-17T16:10:37.162Z,8.95
2019-05-17T16:13:06.785Z,8.40
2019-05-17T16:15:36.657Z,8.70
2019-05-17T16:18:06.284Z,9.68
2019-05-17T16:20:35.944Z,9.28
2019-05-17T16:23:05.580Z,9.60
2019-05-17T16:25:35.253Z,9.70
2019-05-17T16:28:04.888Z,10.08
2019-05-17T16:30:34.550Z,9.23
2019-05-17T16:33:04.184Z,9.95
2019-05-17T16:35:33.853Z,8.95
2019-05-17T16:38:03.484Z,9.58
2019-05-17T16:40:33.149Z,9.28
2019-05-17T16:43:17.221Z,9.28
2019-05-17T16:45:34.690Z,9.28
2019-05-17T16:48:04.432Z,9.55
2019-05-17T16:50:34.060Z,8.75
2019-05-17T16:53:06.348Z,9.55
2019-05-17T16:55:36.205Z,9.03
2019-05-17T16:58:05.879Z,9.18
2019-05-17T17:00:41.415Z,12.75
2019-05-17T17:03:11.155Z,12.10
2019-05-17T17:05:40.894Z,15.30
2019-05-17T17:08:10.565Z,13.65
2019-05-17T17:10:40.196Z,11.88
2019-05-17T17:13:09.862Z,11.10
2019-05-17T17:15:39.497Z,10.10
2019-05-17T17:18:09.280Z,9.33
2019-05-17T17:20:39.044Z,10.18
2019-05-17T17:23:08.730Z,12.20
2019-05-17T17:25:38.547Z,11.48
2019-05-17T17:28:08.219Z,12.88
2019-05-17T17:30:37.863Z,12.88
2019-05-17T17:33:07.552Z,13.32
2019-05-17T17:35:37.280Z,13.22
2019-05-17T17:38:06.961Z,11.85
2019-05-17T17:40:36.670Z,13.22
2019-05-17T17:43:06.338Z,14.58
2019-05-17T17:45:35.975Z,12.98
2019-05-17T17:48:05.797Z,15.78
2019-05-17T17:50:35.565Z,14.75
2019-05-17T17:53:06.663Z,14.90
2019-05-17T17:55:36.878Z,17.10
2019-05-17T17:58:06.676Z,16.00
2019-05-17T18:00:36.326Z,15.30
2019-05-17T18:03:05.995Z,16.07
2019-05-17T18:05:35.827Z,18.52
2019-05-17T18:08:05.489Z,29.20
2019-05-17T18:10:35.697Z,39.15
2019-05-17T18:13:05.466Z,34.00
2019-05-17T18:15:43.626Z,40.90
2019-05-17T18:18:13.827Z,31.70
2019-05-17T18:20:43.802Z,27.27
2019-05-17T18:23:13.478Z,29.00
2019-05-17T18:25:43.115Z,31.33
2019-05-17T18:28:12.878Z,38.55
2019-05-17T18:30:42.522Z,34.38
2019-05-17T18:33:12.267Z,33.18
2019-05-17T18:35:42.168Z,33.83
2019-05-17T18:38:11.852Z,28.67
2019-05-17T18:40:41.470Z,26.48
2019-05-17T18:43:11.130Z,25.97
2019-05-17T18:45:40.797Z,25.23
2019-05-17T18:48:10.521Z,27.27
2019-05-17T18:50:40.268Z,28.60
2019-05-17T18:53:16.552Z,30.70
2019-05-17T18:55:41.331Z,28.07
2019-05-17T18:58:10.996Z,28.07
2019-05-17T19:00:40.641Z,22.60
2019-05-17T19:03:10.301Z,24.67
2019-05-17T19:05:39.930Z,36.10
2019-05-17T19:08:09.592Z,43.35
2019-05-17T19:10:39.232Z,39.67
2019-05-17T19:13:08.901Z,46.20
2019-05-17T19:15:38.642Z,29.07
2019-05-17T19:18:08.408Z,20.85
2019-05-17T19:20:38.041Z,16.00
2019-05-17T19:23:07.706Z,18.35
2019-05-17T19:25:37.344Z,15.03
2019-05-17T19:28:07.013Z,14.60
2019-05-17T19:30:36.826Z,14.43
2019-05-17T19:33:06.960Z,15.05
2019-05-17T19:35:36.590Z,14.90
2019-05-17T19:38:06.259Z,16.55
2019-05-17T19:40:35.899Z,16.75
2019-05-17T19:43:05.574Z,19.32
2019-05-17T19:45:35.306Z,20.52
2019-05-17T19:48:04.980Z,21.65
2019-05-17T19:50:34.664Z,46.10
2019-05-17T19:53:04.370Z,61.13
2019-05-17T19:55:34.039Z,52.25
2019-05-17T19:58:03.677Z,68.00
2019-05-17T20:00:33.396Z,77.60
2019-05-17T20:03:03.044Z,65.65
2019-05-17T20:05:32.786Z,48.20
2019-05-17T20:08:02.427Z,39.83
2019-05-17T20:10:32.201Z,33.83
2019-05-17T20:25:09.068Z,24.00
2019-05-17T20:27:38.729Z,28.07
2019-05-17T20:30:09.484Z,55.08
2019-05-17T20:32:39.531Z,87.67
2019-05-17T20:35:10.905Z,79.35
2019-05-17T20:37:40.650Z,78.05
2019-05-17T20:40:10.684Z,89.77
2019-05-17T20:42:40.420Z,55.28
2019-05-17T20:45:10.830Z,44.38
2019-05-17T20:47:40.567Z,35.78
2019-05-17T20:50:10.771Z,31.80
2019-05-17T20:52:40.512Z,28.27
2019-05-17T20:55:11.214Z,29.32
2019-05-17T20:57:41.121Z,30.32
2019-05-17T21:00:11.790Z,31.90
2019-05-17T21:02:41.484Z,35.03
2019-05-17T21:05:16.059Z,31.40
2019-05-17T21:07:46.227Z,27.32
2019-05-17T21:10:16.062Z,25.40
2019-05-17T21:12:45.794Z,28.02
2019-05-17T21:15:15.464Z,27.77
2019-05-17T21:17:45.096Z,28.30
2019-05-17T21:20:15.402Z,28.23
2019-05-17T21:22:45.125Z,28.62
2019-05-17T21:25:15.626Z,27.65
2019-05-17T21:27:45.257Z,25.75
2019-05-17T21:30:15.267Z,27.17
2019-05-17T21:32:44.910Z,30.48
2019-05-17T21:35:14.704Z,35.70
2019-05-17T21:37:44.334Z,34.55
2019-05-17T21:40:14.554Z,37.25
2019-05-17T21:42:44.173Z,33.67
2019-05-17T21:45:13.972Z,33.48
2019-05-17T21:47:43.605Z,33.08
2019-05-17T21:50:14.011Z,38.25
2019-05-17T21:52:43.645Z,42.23
2019-05-17T21:55:13.441Z,41.20
2019-05-17T21:57:43.081Z,35.38
2019-05-17T22:00:15.862Z,39.40
2019-05-17T22:02:45.502Z,38.48
2019-05-17T22:05:15.172Z,40.50
2019-05-17T22:07:44.877Z,32.53
2019-05-17T22:10:14.712Z,31.25
2019-05-17T22:12:44.338Z,30.27
2019-05-17T22:15:13.998Z,29.23
2019-05-17T22:17:43.639Z,29.52
2019-05-17T22:20:13.567Z,29.42
2019-05-17T22:22:43.198Z,29.90
2019-05-17T22:25:12.935Z,41.37
2019-05-17T22:27:42.596Z,38.60
2019-05-17T22:30:12.824Z,38.92
2019-05-17T22:32:42.478Z,34.13
2019-05-17T22:35:12.258Z,34.88
2019-05-17T22:37:41.933Z,33.13
2019-05-17T22:40:11.652Z,33.00
2019-05-17T22:42:41.301Z,28.83
2019-05-17T22:45:12.445Z,31.52
2019-05-17T22:47:42.101Z,29.23
2019-05-17T22:50:11.875Z,30.48
2019-05-17T22:52:41.639Z,29.67
2019-05-17T22:55:11.421Z,28.02
2019-05-17T22:57:41.076Z,29.10
2019-05-17T23:00:11.048Z,26.87
2019-05-17T23:02:40.808Z,26.37
2019-05-17T23:05:10.752Z,26.62
2019-05-17T23:07:40.529Z,25.23
2019-05-17T23:10:10.434Z,27.48
2019-05-17T23:12:40.295Z,27.55
2019-05-17T23:15:10.369Z,27.50
2019-05-17T23:17:40.138Z,26.25
2019-05-17T23:20:09.941Z,26.73
2019-05-17T23:22:39.711Z,26.68
2019-05-17T23:25:10.104Z,26.25
2019-05-17T23:27:39.866Z,25.12
2019-05-17T23:30:09.841Z,25.50
2019-05-17T23:32:39.575Z,24.55
2019-05-17T23:35:09.731Z,25.30
2019-05-17T23:37:39.412Z,25.45
2019-05-17T23:40:09.791Z,23.45
2019-05-17T23:42:39.441Z,23.55
2019-05-17T23:45:09.670Z,23.15
2019-05-17T23:47:39.336Z,24.60
2019-05-17T23:50:09.214Z,23.25
2019-05-17T23:52:38.878Z,24.20
2019-05-17T23:55:09.051Z,26.95
2019-05-17T23:57:38.709Z,25.40
